sensor_id;sensor_type;location;lat;lon;timestamp;P1;durP1;ratioP1;P2;durP2;ratioP2
18677;SDS011;9469;51.114;13.914;2024-01-11T00:03:21;61.43;;;32.23;;
18677;SDS011;9469;51.114;13.914;2024-01-11T00:08:26;69.53;;;35.33;;
18677;SDS011;9469;51.114;13.914;2024-01-11T00:13:33;65.10;;;34.00;;
18677;SDS011;9469;51.114;13.914;2024-01-11T00:18:43;70.10;;;32.53;;
18677;SDS011;9469;51.114;13.914;2024-01-11T00:23:49;60.77;;;31.40;;
18677;SDS011;9469;51.114;13.914;2024-01-11T00:28:54;64.57;;;33.13;;
18677;SDS011;9469;51.114;13.914;2024-01-11T00:34:02;60.43;;;29.90;;
18677;SDS011;9469;51.114;13.914;2024-01-11T00:39:07;55.70;;;31.53;;
18677;SDS011;9469;51.114;13.914;2024-01-11T00:44:13;59.17;;;30.80;;
18677;SDS011;9469;51.114;13.914;2024-01-11T00:49:21;55.07;;;30.53;;
18677;SDS011;9469;51.114;13.914;2024-01-11T00:54:27;65.87;;;34.23;;
18677;SDS011;9469;51.114;13.914;2024-01-11T00:59:32;56.83;;;30.70;;
18677;SDS011;9469;51.114;13.914;2024-01-11T01:04:42;58.40;;;30.67;;
18677;SDS011;9469;51.114;13.914;2024-01-11T01:09:58;53.27;;;28.17;;
18677;SDS011;9469;51.114;13.914;2024-01-11T01:15:05;55.30;;;29.30;;
18677;SDS011;9469;51.114;13.914;2024-01-11T01:20:16;60.37;;;31.57;;
18677;SDS011;9469;51.114;13.914;2024-01-11T01:25:22;60.70;;;31.33;;
18677;SDS011;9469;51.114;13.914;2024-01-11T01:30:27;61.17;;;33.23;;
18677;SDS011;9469;51.114;13.914;2024-01-11T01:35:35;63.30;;;31.97;;
18677;SDS011;9469;51.114;13.914;2024-01-11T01:40:40;61.47;;;31.70;;
18677;SDS011;9469;51.114;13.914;2024-01-11T01:45:47;65.97;;;32.17;;
18677;SDS011;9469;51.114;13.914;2024-01-11T01:50:55;54.17;;;28.90;;
18677;SDS011;9469;51.114;13.914;2024-01-11T01:56:01;54.70;;;27.70;;
18677;SDS011;9469;51.114;13.914;2024-01-11T02:01:10;47.53;;;26.70;;
18677;SDS011;9469;51.114;13.914;2024-01-11T02:06:18;54.20;;;26.07;;
18677;SDS011;9469;51.114;13.914;2024-01-11T02:11:26;49.70;;;26.17;;
18677;SDS011;9469;51.114;13.914;2024-01-11T02:16:35;54.67;;;27.10;;
18677;SDS011;9469;51.114;13.914;2024-01-11T02:21:43;45.93;;;25.20;;
18677;SDS011;9469;51.114;13.914;2024-01-11T02:27:00;47.27;;;25.37;;
18677;SDS011;9469;51.114;13.914;2024-01-11T02:32:06;55.67;;;29.33;;
18677;SDS011;9469;51.114;13.914;2024-01-11T02:37:12;57.80;;;29.20;;
18677;SDS011;9469;51.114;13.914;2024-01-11T02:42:20;53.03;;;29.87;;
18677;SDS011;9469;51.114;13.914;2024-01-11T02:47:25;42.80;;;26.13;;
18677;SDS011;9469;51.114;13.914;2024-01-11T02:52:34;49.33;;;26.27;;
18677;SDS011;9469;51.114;13.914;2024-01-11T02:57:42;47.20;;;24.00;;
18677;SDS011;9469;51.114;13.914;2024-01-11T03:02:47;45.70;;;24.87;;
18677;SDS011;9469;51.114;13.914;2024-01-11T03:07:54;57.83;;;28.10;;
18677;SDS011;9469;51.114;13.914;2024-01-11T03:13:02;45.77;;;26.40;;
18677;SDS011;9469;51.114;13.914;2024-01-11T03:18:07;52.67;;;25.73;;
18677;SDS011;9469;51.114;13.914;2024-01-11T03:23:13;40.27;;;20.13;;
18677;SDS011;9469;51.114;13.914;2024-01-11T03:28:21;41.37;;;20.93;;
18677;SDS011;9469;51.114;13.914;2024-01-11T03:33:26;36.53;;;19.77;;
18677;SDS011;9469;51.114;13.914;2024-01-11T03:38:32;36.53;;;19.80;;
18677;SDS011;9469;51.114;13.914;2024-01-11T03:43:45;37.77;;;20.27;;
18677;SDS011;9469;51.114;13.914;2024-01-11T03:48:53;38.07;;;22.73;;
18677;SDS011;9469;51.114;13.914;2024-01-11T03:54:00;39.23;;;22.63;;
18677;SDS011;9469;51.114;13.914;2024-01-11T03:59:08;46.63;;;23.07;;
18677;SDS011;9469;51.114;13.914;2024-01-11T04:04:16;40.10;;;22.47;;
18677;SDS011;9469;51.114;13.914;2024-01-11T04:09:21;41.27;;;24.53;;
18677;SDS011;9469;51.114;13.914;2024-01-11T04:14:29;57.67;;;29.33;;
18677;SDS011;9469;51.114;13.914;2024-01-11T04:19:34;54.30;;;27.57;;
18677;SDS011;9469;51.114;13.914;2024-01-11T04:24:41;60.13;;;28.23;;
18677;SDS011;9469;51.114;13.914;2024-01-11T04:29:50;50.77;;;29.27;;
18677;SDS011;9469;51.114;13.914;2024-01-11T04:34:55;55.13;;;25.87;;
18677;SDS011;9469;51.114;13.914;2024-01-11T04:40:00;43.17;;;21.87;;
18677;SDS011;9469;51.114;13.914;2024-01-11T04:45:10;44.57;;;25.13;;
18677;SDS011;9469;51.114;13.914;2024-01-11T04:50:17;36.00;;;19.87;;
18677;SDS011;9469;51.114;13.914;2024-01-11T04:55:23;37.17;;;19.63;;
18677;SDS011;9469;51.114;13.914;2024-01-11T05:00:31;37.30;;;21.07;;
18677;SDS011;9469;51.114;13.914;2024-01-11T05:05:36;34.60;;;19.73;;
18677;SDS011;9469;51.114;13.914;2024-01-11T05:10:42;40.47;;;21.43;;
18677;SDS011;9469;51.114;13.914;2024-01-11T05:15:50;33.73;;;18.97;;
18677;SDS011;9469;51.114;13.914;2024-01-11T05:20:57;38.67;;;21.17;;
18677;SDS011;9469;51.114;13.914;2024-01-11T05:26:02;43.93;;;21.97;;
18677;SDS011;9469;51.114;13.914;2024-01-11T05:31:10;41.00;;;21.37;;
18677;SDS011;9469;51.114;13.914;2024-01-11T05:36:17;41.83;;;23.43;;
18677;SDS011;9469;51.114;13.914;2024-01-11T05:41:23;40.10;;;23.77;;
18677;SDS011;9469;51.114;13.914;2024-01-11T05:46:31;42.00;;;23.07;;
18677;SDS011;9469;51.114;13.914;2024-01-11T05:51:36;42.13;;;22.67;;
18677;SDS011;9469;51.114;13.914;2024-01-11T05:56:42;44.90;;;24.33;;
18677;SDS011;9469;51.114;13.914;2024-01-11T06:01:50;42.37;;;23.47;;
18677;SDS011;9469;51.114;13.914;2024-01-11T06:06:55;45.67;;;24.00;;
18677;SDS011;9469;51.114;13.914;2024-01-11T06:12:01;45.80;;;24.40;;
18677;SDS011;9469;51.114;13.914;2024-01-11T06:17:08;37.83;;;21.10;;
18677;SDS011;9469;51.114;13.914;2024-01-11T06:22:14;43.73;;;21.57;;
18677;SDS011;9469;51.114;13.914;2024-01-11T06:27:20;42.23;;;24.07;;
18677;SDS011;9469;51.114;13.914;2024-01-11T06:32:29;39.17;;;21.90;;
18677;SDS011;9469;51.114;13.914;2024-01-11T06:37:34;40.57;;;21.47;;
18677;SDS011;9469;51.114;13.914;2024-01-11T06:42:40;39.17;;;20.13;;
18677;SDS011;9469;51.114;13.914;2024-01-11T06:47:48;39.73;;;21.13;;
18677;SDS011;9469;51.114;13.914;2024-01-11T06:52:53;44.17;;;20.67;;
18677;SDS011;9469;51.114;13.914;2024-01-11T06:57:59;35.00;;;21.50;;
18677;SDS011;9469;51.114;13.914;2024-01-11T07:03:08;44.23;;;23.77;;
18677;SDS011;9469;51.114;13.914;2024-01-11T07:08:13;39.63;;;22.30;;
18677;SDS011;9469;51.114;13.914;2024-01-11T07:13:22;52.10;;;22.63;;
18677;SDS011;9469;51.114;13.914;2024-01-11T07:18:31;53.47;;;25.07;;
18677;SDS011;9469;51.114;13.914;2024-01-11T07:23:39;52.30;;;23.50;;
18677;SDS011;9469;51.114;13.914;2024-01-11T07:28:45;39.40;;;21.07;;
18677;SDS011;9469;51.114;13.914;2024-01-11T07:33:52;35.30;;;21.07;;
18677;SDS011;9469;51.114;13.914;2024-01-11T07:38:58;40.13;;;19.27;;
18677;SDS011;9469;51.114;13.914;2024-01-11T07:44:03;42.40;;;21.90;;
18677;SDS011;9469;51.114;13.914;2024-01-11T07:49:11;42.47;;;23.97;;
18677;SDS011;9469;51.114;13.914;2024-01-11T07:54:17;57.97;;;26.43;;
18677;SDS011;9469;51.114;13.914;2024-01-11T07:59:22;50.38;;;26.13;;
18677;SDS011;9469;51.114;13.914;2024-01-11T08:04:32;44.73;;;23.27;;
18677;SDS011;9469;51.114;13.914;2024-01-11T08:09:40;47.27;;;22.73;;
18677;SDS011;9469;51.114;13.914;2024-01-11T08:14:47;43.23;;;24.47;;
18677;SDS011;9469;51.114;13.914;2024-01-11T08:19:55;55.23;;;27.00;;
18677;SDS011;9469;51.114;13.914;2024-01-11T08:25:01;45.07;;;23.17;;
18677;SDS011;9469;51.114;13.914;2024-01-11T08:30:07;41.93;;;23.13;;
18677;SDS011;9469;51.114;13.914;2024-01-11T08:35:18;47.47;;;24.20;;
18677;SDS011;9469;51.114;13.914;2024-01-11T08:40:23;46.23;;;23.37;;
18677;SDS011;9469;51.114;13.914;2024-01-11T08:45:28;49.77;;;24.83;;
18677;SDS011;9469;51.114;13.914;2024-01-11T08:50:42;44.43;;;25.33;;
18677;SDS011;9469;51.114;13.914;2024-01-11T08:56:01;52.60;;;27.47;;
18677;SDS011;9469;51.114;13.914;2024-01-11T09:01:09;54.53;;;28.90;;
18677;SDS011;9469;51.114;13.914;2024-01-11T09:06:18;52.40;;;29.30;;
18677;SDS011;9469;51.114;13.914;2024-01-11T09:11:23;56.70;;;30.13;;
18677;SDS011;9469;51.114;13.914;2024-01-11T09:16:29;59.60;;;30.03;;
18677;SDS011;9469;51.114;13.914;2024-01-11T09:21:37;65.20;;;39.60;;
18677;SDS011;9469;51.114;13.914;2024-01-11T09:26:43;55.13;;;33.23;;
18677;SDS011;9469;51.114;13.914;2024-01-11T09:31:48;66.77;;;32.67;;
18677;SDS011;9469;51.114;13.914;2024-01-11T09:37:00;61.07;;;33.00;;
18677;SDS011;9469;51.114;13.914;2024-01-11T09:42:06;66.77;;;34.70;;
18677;SDS011;9469;51.114;13.914;2024-01-11T09:47:12;68.10;;;35.77;;
18677;SDS011;9469;51.114;13.914;2024-01-11T09:52:25;75.47;;;37.70;;
18677;SDS011;9469;51.114;13.914;2024-01-11T09:57:36;70.83;;;37.20;;
18677;SDS011;9469;51.114;13.914;2024-01-11T10:02:46;73.90;;;37.10;;
18677;SDS011;9469;51.114;13.914;2024-01-11T10:07:54;71.70;;;39.30;;
18677;SDS011;9469;51.114;13.914;2024-01-11T10:12:59;75.63;;;37.37;;
18677;SDS011;9469;51.114;13.914;2024-01-11T10:18:04;77.93;;;38.50;;
18677;SDS011;9469;51.114;13.914;2024-01-11T10:23:13;76.03;;;39.90;;
18677;SDS011;9469;51.114;13.914;2024-01-11T10:28:19;77.53;;;39.50;;
18677;SDS011;9469;51.114;13.914;2024-01-11T10:33:27;81.80;;;37.97;;
18677;SDS011;9469;51.114;13.914;2024-01-11T10:38:38;70.67;;;36.17;;
18677;SDS011;9469;51.114;13.914;2024-01-11T10:43:44;83.27;;;38.43;;
18677;SDS011;9469;51.114;13.914;2024-01-11T10:48:55;68.90;;;36.57;;
18677;SDS011;9469;51.114;13.914;2024-01-11T10:54:05;76.37;;;38.77;;
18677;SDS011;9469;51.114;13.914;2024-01-11T10:59:12;75.60;;;36.20;;
18677;SDS011;9469;51.114;13.914;2024-01-11T11:04:21;68.43;;;35.17;;
18677;SDS011;9469;51.114;13.914;2024-01-11T11:09:30;66.80;;;36.00;;
18677;SDS011;9469;51.114;13.914;2024-01-11T11:14:38;72.73;;;35.47;;
18677;SDS011;9469;51.114;13.914;2024-01-11T11:20:07;68.80;;;35.90;;
18677;SDS011;9469;51.114;13.914;2024-01-11T11:25:30;69.70;;;35.40;;
18677;SDS011;9469;51.114;13.914;2024-01-11T11:30:41;68.07;;;36.60;;
18677;SDS011;9469;51.114;13.914;2024-01-11T11:35:59;68.57;;;36.80;;
18677;SDS011;9469;51.114;13.914;2024-01-11T11:41:12;61.97;;;35.97;;
18677;SDS011;9469;51.114;13.914;2024-01-11T11:46:23;65.77;;;34.60;;
18677;SDS011;9469;51.114;13.914;2024-01-11T11:51:33;65.27;;;34.70;;
18677;SDS011;9469;51.114;13.914;2024-01-11T11:56:47;61.27;;;35.20;;
18677;SDS011;9469;51.114;13.914;2024-01-11T12:02:00;66.43;;;34.23;;
18677;SDS011;9469;51.114;13.914;2024-01-11T12:07:05;65.20;;;35.90;;
18677;SDS011;9469;51.114;13.914;2024-01-11T12:12:17;69.27;;;35.33;;
18677;SDS011;9469;51.114;13.914;2024-01-11T12:17:23;62.97;;;34.80;;
18677;SDS011;9469;51.114;13.914;2024-01-11T12:22:29;60.77;;;35.07;;
18677;SDS011;9469;51.114;13.914;2024-01-11T12:27:39;67.33;;;35.77;;
18677;SDS011;9469;51.114;13.914;2024-01-11T12:32:49;65.17;;;35.10;;
18677;SDS011;9469;51.114;13.914;2024-01-11T12:37:58;68.10;;;33.43;;
18677;SDS011;9469;51.114;13.914;2024-01-11T12:43:08;62.60;;;32.33;;
18677;SDS011;9469;51.114;13.914;2024-01-11T12:48:17;65.20;;;30.87;;
18677;SDS011;9469;51.114;13.914;2024-01-11T12:53:28;68.43;;;35.00;;
18677;SDS011;9469;51.114;13.914;2024-01-11T13:04:10;60.43;;;32.93;;
18677;SDS011;9469;51.114;13.914;2024-01-11T13:09:16;64.40;;;34.53;;
18677;SDS011;9469;51.114;13.914;2024-01-11T13:14:25;69.53;;;34.63;;
18677;SDS011;9469;51.114;13.914;2024-01-11T13:19:30;71.67;;;32.77;;
18677;SDS011;9469;51.114;13.914;2024-01-11T13:24:36;63.87;;;33.90;;
18677;SDS011;9469;51.114;13.914;2024-01-11T13:29:43;59.97;;;30.80;;
18677;SDS011;9469;51.114;13.914;2024-01-11T13:34:53;60.30;;;31.47;;
18677;SDS011;9469;51.114;13.914;2024-01-11T13:40:01;60.60;;;30.50;;
18677;SDS011;9469;51.114;13.914;2024-01-11T13:45:10;58.50;;;31.70;;
18677;SDS011;9469;51.114;13.914;2024-01-11T13:50:16;57.60;;;30.67;;
18677;SDS011;9469;51.114;13.914;2024-01-11T13:55:27;63.97;;;32.43;;
18677;SDS011;9469;51.114;13.914;2024-01-11T14:00:43;57.60;;;30.67;;
18677;SDS011;9469;51.114;13.914;2024-01-11T14:05:49;58.50;;;31.47;;
18677;SDS011;9469;51.114;13.914;2024-01-11T14:10:54;59.57;;;30.57;;
18677;SDS011;9469;51.114;13.914;2024-01-11T14:16:03;58.93;;;31.33;;
18677;SDS011;9469;51.114;13.914;2024-01-11T14:21:20;60.03;;;30.70;;
18677;SDS011;9469;51.114;13.914;2024-01-11T14:26:29;58.97;;;29.20;;
18677;SDS011;9469;51.114;13.914;2024-01-11T14:31:39;58.67;;;30.40;;
18677;SDS011;9469;51.114;13.914;2024-01-11T14:36:45;56.63;;;31.20;;
18677;SDS011;9469;51.114;13.914;2024-01-11T14:41:52;55.93;;;31.07;;
18677;SDS011;9469;51.114;13.914;2024-01-11T14:47:00;58.57;;;29.27;;
18677;SDS011;9469;51.114;13.914;2024-01-11T14:52:06;57.00;;;29.50;;
18677;SDS011;9469;51.114;13.914;2024-01-11T14:57:11;59.37;;;28.90;;
18677;SDS011;9469;51.114;13.914;2024-01-11T15:02:19;65.03;;;31.17;;
18677;SDS011;9469;51.114;13.914;2024-01-11T15:07:26;58.13;;;31.17;;
18677;SDS011;9469;51.114;13.914;2024-01-11T15:12:32;68.37;;;34.77;;
18677;SDS011;9469;51.114;13.914;2024-01-11T15:17:41;54.70;;;29.17;;
18677;SDS011;9469;51.114;13.914;2024-01-11T15:22:47;63.93;;;30.67;;
18677;SDS011;9469;51.114;13.914;2024-01-11T15:27:53;60.37;;;30.10;;
18677;SDS011;9469;51.114;13.914;2024-01-11T15:33:00;61.67;;;31.87;;
18677;SDS011;9469;51.114;13.914;2024-01-11T15:38:08;60.33;;;32.50;;
18677;SDS011;9469;51.114;13.914;2024-01-11T15:43:16;59.03;;;30.10;;
18677;SDS011;9469;51.114;13.914;2024-01-11T15:48:24;66.37;;;31.00;;
18677;SDS011;9469;51.114;13.914;2024-01-11T15:53:30;59.53;;;32.63;;
18677;SDS011;9469;51.114;13.914;2024-01-11T15:58:35;67.30;;;34.03;;
18677;SDS011;9469;51.114;13.914;2024-01-11T16:03:44;69.17;;;36.87;;
18677;SDS011;9469;51.114;13.914;2024-01-11T16:08:51;63.90;;;32.87;;
18677;SDS011;9469;51.114;13.914;2024-01-11T16:13:58;75.30;;;34.23;;
18677;SDS011;9469;51.114;13.914;2024-01-11T16:19:08;65.23;;;32.20;;
18677;SDS011;9469;51.114;13.914;2024-01-11T16:24:13;68.60;;;34.93;;
18677;SDS011;9469;51.114;13.914;2024-01-11T16:29:20;76.93;;;35.90;;
18677;SDS011;9469;51.114;13.914;2024-01-11T16:34:28;62.60;;;33.00;;
18677;SDS011;9469;51.114;13.914;2024-01-11T16:39:35;70.57;;;37.30;;
18677;SDS011;9469;51.114;13.914;2024-01-11T16:44:42;67.13;;;34.37;;
18677;SDS011;9469;51.114;13.914;2024-01-11T16:49:50;68.23;;;32.53;;
18677;SDS011;9469;51.114;13.914;2024-01-11T16:54:55;72.17;;;33.20;;
18677;SDS011;9469;51.114;13.914;2024-01-11T17:00:03;65.13;;;33.93;;
18677;SDS011;9469;51.114;13.914;2024-01-11T17:05:12;69.03;;;33.60;;
18677;SDS011;9469;51.114;13.914;2024-01-11T17:10:19;66.40;;;33.23;;
18677;SDS011;9469;51.114;13.914;2024-01-11T17:15:24;60.30;;;32.43;;
18677;SDS011;9469;51.114;13.914;2024-01-11T17:20:32;56.20;;;28.53;;
18677;SDS011;9469;51.114;13.914;2024-01-11T17:25:38;53.60;;;26.63;;
18677;SDS011;9469;51.114;13.914;2024-01-11T17:30:45;48.20;;;24.60;;
18677;SDS011;9469;51.114;13.914;2024-01-11T17:35:54;48.93;;;24.93;;
18677;SDS011;9469;51.114;13.914;2024-01-11T17:41:02;42.03;;;23.17;;
18677;SDS011;9469;51.114;13.914;2024-01-11T17:46:08;41.20;;;23.50;;
18677;SDS011;9469;51.114;13.914;2024-01-11T17:51:16;40.07;;;20.87;;
18677;SDS011;9469;51.114;13.914;2024-01-11T17:56:21;44.03;;;22.87;;
18677;SDS011;9469;51.114;13.914;2024-01-11T18:01:26;39.67;;;22.30;;
18677;SDS011;9469;51.114;13.914;2024-01-11T18:06:39;37.37;;;22.07;;
18677;SDS011;9469;51.114;13.914;2024-01-11T18:11:46;35.13;;;19.47;;
18677;SDS011;9469;51.114;13.914;2024-01-11T18:16:52;36.37;;;19.40;;
18677;SDS011;9469;51.114;13.914;2024-01-11T18:22:00;38.53;;;20.50;;
18677;SDS011;9469;51.114;13.914;2024-01-11T18:27:06;35.23;;;20.07;;
18677;SDS011;9469;51.114;13.914;2024-01-11T18:32:12;42.67;;;20.40;;
18677;SDS011;9469;51.114;13.914;2024-01-11T18:37:20;36.43;;;19.53;;
18677;SDS011;9469;51.114;13.914;2024-01-11T18:42:29;35.87;;;20.30;;
18677;SDS011;9469;51.114;13.914;2024-01-11T18:47:34;35.57;;;19.97;;
18677;SDS011;9469;51.114;13.914;2024-01-11T18:52:45;36.97;;;19.77;;
18677;SDS011;9469;51.114;13.914;2024-01-11T18:57:52;39.73;;;21.43;;
18677;SDS011;9469;51.114;13.914;2024-01-11T19:02:57;40.47;;;20.53;;
18677;SDS011;9469;51.114;13.914;2024-01-11T19:08:06;39.63;;;20.73;;
18677;SDS011;9469;51.114;13.914;2024-01-11T19:13:12;39.53;;;20.93;;
18677;SDS011;9469;51.114;13.914;2024-01-11T19:18:20;40.87;;;20.90;;
18677;SDS011;9469;51.114;13.914;2024-01-11T19:23:28;40.60;;;21.67;;
18677;SDS011;9469;51.114;13.914;2024-01-11T19:28:39;42.13;;;21.60;;
18677;SDS011;9469;51.114;13.914;2024-01-11T19:33:44;43.70;;;22.70;;
18677;SDS011;9469;51.114;13.914;2024-01-11T19:38:53;41.63;;;23.63;;
18677;SDS011;9469;51.114;13.914;2024-01-11T19:44:02;42.47;;;24.10;;
18677;SDS011;9469;51.114;13.914;2024-01-11T19:49:10;47.60;;;24.90;;
18677;SDS011;9469;51.114;13.914;2024-01-11T19:54:18;46.97;;;24.80;;
18677;SDS011;9469;51.114;13.914;2024-01-11T19:59:24;40.93;;;23.00;;
18677;SDS011;9469;51.114;13.914;2024-01-11T20:04:31;42.53;;;22.33;;
18677;SDS011;9469;51.114;13.914;2024-01-11T20:09:39;44.20;;;22.70;;
18677;SDS011;9469;51.114;13.914;2024-01-11T20:14:46;46.10;;;23.87;;
18677;SDS011;9469;51.114;13.914;2024-01-11T20:19:54;39.30;;;22.93;;
18677;SDS011;9469;51.114;13.914;2024-01-11T20:25:02;47.07;;;22.40;;
18677;SDS011;9469;51.114;13.914;2024-01-11T20:30:10;38.57;;;21.67;;
18677;SDS011;9469;51.114;13.914;2024-01-11T20:35:16;36.60;;;20.73;;
18677;SDS011;9469;51.114;13.914;2024-01-11T20:40:24;40.10;;;19.63;;
18677;SDS011;9469;51.114;13.914;2024-01-11T20:45:29;35.57;;;18.57;;
18677;SDS011;9469;51.114;13.914;2024-01-11T20:50:35;35.27;;;18.63;;
18677;SDS011;9469;51.114;13.914;2024-01-11T20:55:50;34.23;;;18.00;;
18677;SDS011;9469;51.114;13.914;2024-01-11T21:01:02;30.13;;;18.03;;
18677;SDS011;9469;51.114;13.914;2024-01-11T21:06:07;33.57;;;18.43;;
18677;SDS011;9469;51.114;13.914;2024-01-11T21:11:18;28.47;;;17.27;;
18677;SDS011;9469;51.114;13.914;2024-01-11T21:16:23;32.23;;;17.37;;
18677;SDS011;9469;51.114;13.914;2024-01-11T21:21:28;28.43;;;16.07;;
18677;SDS011;9469;51.114;13.914;2024-01-11T21:26:36;31.50;;;16.87;;
18677;SDS011;9469;51.114;13.914;2024-01-11T21:31:41;34.93;;;18.10;;
18677;SDS011;9469;51.114;13.914;2024-01-11T21:36:47;31.53;;;16.80;;
18677;SDS011;9469;51.114;13.914;2024-01-11T21:41:55;29.90;;;16.60;;
18677;SDS011;9469;51.114;13.914;2024-01-11T21:47:00;34.90;;;17.67;;
18677;SDS011;9469;51.114;13.914;2024-01-11T21:52:05;32.00;;;17.60;;
18677;SDS011;9469;51.114;13.914;2024-01-11T21:57:13;30.37;;;16.40;;
18677;SDS011;9469;51.114;13.914;2024-01-11T22:02:18;29.47;;;16.57;;
18677;SDS011;9469;51.114;13.914;2024-01-11T22:07:23;32.80;;;18.13;;
18677;SDS011;9469;51.114;13.914;2024-01-11T22:12:31;30.10;;;17.23;;
18677;SDS011;9469;51.114;13.914;2024-01-11T22:17:36;29.23;;;15.57;;
18677;SDS011;9469;51.114;13.914;2024-01-11T22:22:42;32.50;;;16.50;;
18677;SDS011;9469;51.114;13.914;2024-01-11T22:27:50;27.67;;;15.80;;
18677;SDS011;9469;51.114;13.914;2024-01-11T22:32:57;25.70;;;15.47;;
18677;SDS011;9469;51.114;13.914;2024-01-11T22:38:05;31.47;;;17.27;;
18677;SDS011;9469;51.114;13.914;2024-01-11T22:43:13;28.20;;;15.20;;
18677;SDS011;9469;51.114;13.914;2024-01-11T22:48:18;28.10;;;15.67;;
18677;SDS011;9469;51.114;13.914;2024-01-11T22:53:31;30.30;;;17.03;;
18677;SDS011;9469;51.114;13.914;2024-01-11T22:58:39;28.53;;;15.90;;
18677;SDS011;9469;51.114;13.914;2024-01-11T23:03:47;26.57;;;15.43;;
18677;SDS011;9469;51.114;13.914;2024-01-11T23:08:52;30.10;;;15.93;;
18677;SDS011;9469;51.114;13.914;2024-01-11T23:14:00;28.60;;;15.43;;
18677;SDS011;9469;51.114;13.914;2024-01-11T23:19:07;32.60;;;17.13;;
18677;SDS011;9469;51.114;13.914;2024-01-11T23:24:12;30.73;;;16.87;;
18677;SDS011;9469;51.114;13.914;2024-01-11T23:29:21;27.13;;;14.67;;
18677;SDS011;9469;51.114;13.914;2024-01-11T23:34:26;33.80;;;16.70;;
18677;SDS011;9469;51.114;13.914;2024-01-11T23:39:32;34.97;;;18.13;;
18677;SDS011;9469;51.114;13.914;2024-01-11T23:44:40;24.87;;;14.73;;
18677;SDS011;9469;51.114;13.914;2024-01-11T23:49:46;30.13;;;15.77;;
18677;SDS011;9469;51.114;13.914;2024-01-11T23:54:51;31.33;;;17.10;;
18677;SDS011;9469;51.114;13.914;2024-01-11T23:59:59;32.10;;;17.47;;
